sensor_id;sensor_type;location;lat;lon;timestamp;P1;durP1;ratioP1;P2;durP2;ratioP2
870;SDS011;422;51.280;7.236;2024-01-30T00:00:50;13.60;;;12.10;;
870;SDS011;422;51.280;7.236;2024-01-30T00:03:18;16.97;;;12.27;;
870;SDS011;422;51.280;7.236;2024-01-30T00:05:47;14.90;;;11.80;;
870;SDS011;422;51.280;7.236;2024-01-30T00:08:14;17.40;;;11.80;;
870;SDS011;422;51.280;7.236;2024-01-30T00:10:41;14.40;;;12.10;;
870;SDS011;422;51.280;7.236;2024-01-30T00:13:09;17.10;;;12.30;;
870;SDS011;422;51.280;7.236;2024-01-30T00:15:36;12.73;;;11.43;;
870;SDS011;422;51.280;7.236;2024-01-30T00:18:04;14.90;;;11.47;;
870;SDS011;422;51.280;7.236;2024-01-30T00:20:31;15.97;;;11.33;;
870;SDS011;422;51.280;7.236;2024-01-30T00:23:00;16.00;;;12.47;;
870;SDS011;422;51.280;7.236;2024-01-30T00:25:27;15.27;;;11.50;;
870;SDS011;422;51.280;7.236;2024-01-30T00:27:54;12.60;;;11.30;;
870;SDS011;422;51.280;7.236;2024-01-30T00:30:21;13.40;;;11.47;;
870;SDS011;422;51.280;7.236;2024-01-30T00:32:49;16.53;;;13.70;;
870;SDS011;422;51.280;7.236;2024-01-30T00:35:17;14.90;;;11.87;;
870;SDS011;422;51.280;7.236;2024-01-30T00:37:45;16.93;;;12.33;;
870;SDS011;422;51.280;7.236;2024-01-30T00:40:14;14.67;;;12.93;;
870;SDS011;422;51.280;7.236;2024-01-30T00:42:43;16.20;;;12.90;;
870;SDS011;422;51.280;7.236;2024-01-30T00:45:14;14.43;;;12.53;;
870;SDS011;422;51.280;7.236;2024-01-30T00:47:42;16.90;;;12.43;;
870;SDS011;422;51.280;7.236;2024-01-30T00:50:10;15.27;;;12.13;;
870;SDS011;422;51.280;7.236;2024-01-30T00:52:38;12.90;;;11.57;;
870;SDS011;422;51.280;7.236;2024-01-30T00:55:07;16.07;;;11.90;;
870;SDS011;422;51.280;7.236;2024-01-30T00:57:35;17.43;;;13.17;;
870;SDS011;422;51.280;7.236;2024-01-30T01:00:03;14.17;;;12.03;;
870;SDS011;422;51.280;7.236;2024-01-30T01:02:33;12.60;;;11.30;;
870;SDS011;422;51.280;7.236;2024-01-30T01:05:01;14.57;;;12.30;;
870;SDS011;422;51.280;7.236;2024-01-30T01:07:28;14.83;;;12.27;;
870;SDS011;422;51.280;7.236;2024-01-30T01:09:56;15.50;;;12.80;;
870;SDS011;422;51.280;7.236;2024-01-30T01:12:23;16.10;;;12.37;;
870;SDS011;422;51.280;7.236;2024-01-30T01:14:52;15.00;;;11.60;;
870;SDS011;422;51.280;7.236;2024-01-30T01:17:19;19.30;;;12.93;;
870;SDS011;422;51.280;7.236;2024-01-30T01:19:46;15.27;;;12.30;;
870;SDS011;422;51.280;7.236;2024-01-30T01:22:14;18.50;;;14.10;;
870;SDS011;422;51.280;7.236;2024-01-30T01:24:42;15.83;;;12.17;;
870;SDS011;422;51.280;7.236;2024-01-30T01:27:09;16.10;;;13.17;;
870;SDS011;422;51.280;7.236;2024-01-30T01:29:37;15.97;;;11.93;;
870;SDS011;422;51.280;7.236;2024-01-30T01:32:06;13.93;;;11.47;;
870;SDS011;422;51.280;7.236;2024-01-30T01:34:33;17.33;;;12.40;;
870;SDS011;422;51.280;7.236;2024-01-30T01:37:01;19.90;;;14.00;;
870;SDS011;422;51.280;7.236;2024-01-30T01:39:28;19.53;;;12.40;;
870;SDS011;422;51.280;7.236;2024-01-30T01:41:55;16.37;;;13.57;;
870;SDS011;422;51.280;7.236;2024-01-30T01:44:22;20.50;;;12.93;;
870;SDS011;422;51.280;7.236;2024-01-30T01:46:50;18.43;;;13.97;;
870;SDS011;422;51.280;7.236;2024-01-30T01:49:20;17.07;;;13.27;;
870;SDS011;422;51.280;7.236;2024-01-30T01:51:49;17.27;;;13.03;;
870;SDS011;422;51.280;7.236;2024-01-30T01:54:20;14.77;;;12.43;;
870;SDS011;422;51.280;7.236;2024-01-30T01:56:47;14.57;;;12.70;;
870;SDS011;422;51.280;7.236;2024-01-30T01:59:14;19.07;;;14.20;;
870;SDS011;422;51.280;7.236;2024-01-30T02:01:42;13.10;;;11.70;;
870;SDS011;422;51.280;7.236;2024-01-30T02:07:34;14.97;;;11.93;;
870;SDS011;422;51.280;7.236;2024-01-30T02:10:01;18.07;;;14.50;;
870;SDS011;422;51.280;7.236;2024-01-30T02:12:29;14.80;;;11.43;;
870;SDS011;422;51.280;7.236;2024-01-30T02:14:56;17.30;;;13.93;;
870;SDS011;422;51.280;7.236;2024-01-30T02:17:24;14.43;;;12.33;;
870;SDS011;422;51.280;7.236;2024-01-30T02:19:51;17.00;;;13.10;;
870;SDS011;422;51.280;7.236;2024-01-30T02:22:20;14.30;;;12.10;;
870;SDS011;422;51.280;7.236;2024-01-30T02:24:48;16.07;;;13.20;;
870;SDS011;422;51.280;7.236;2024-01-30T02:27:15;18.00;;;12.30;;
870;SDS011;422;51.280;7.236;2024-01-30T02:29:43;14.57;;;12.20;;
870;SDS011;422;51.280;7.236;2024-01-30T02:32:10;14.90;;;12.70;;
870;SDS011;422;51.280;7.236;2024-01-30T02:34:37;15.03;;;12.13;;
870;SDS011;422;51.280;7.236;2024-01-30T02:37:04;16.10;;;12.63;;
870;SDS011;422;51.280;7.236;2024-01-30T02:39:33;19.33;;;13.23;;
870;SDS011;422;51.280;7.236;2024-01-30T02:42:00;15.90;;;13.47;;
870;SDS011;422;51.280;7.236;2024-01-30T02:44:26;14.20;;;12.00;;
870;SDS011;422;51.280;7.236;2024-01-30T02:46:53;15.37;;;12.30;;
870;SDS011;422;51.280;7.236;2024-01-30T02:49:21;17.63;;;13.27;;
870;SDS011;422;51.280;7.236;2024-01-30T02:51:48;14.30;;;11.97;;
870;SDS011;422;51.280;7.236;2024-01-30T02:54:16;12.53;;;11.23;;
870;SDS011;422;51.280;7.236;2024-01-30T02:56:44;18.97;;;12.70;;
870;SDS011;422;51.280;7.236;2024-01-30T02:59:13;14.70;;;11.53;;
870;SDS011;422;51.280;7.236;2024-01-30T03:01:43;13.70;;;11.33;;
870;SDS011;422;51.280;7.236;2024-01-30T03:04:11;16.90;;;12.77;;
870;SDS011;422;51.280;7.236;2024-01-30T03:06:38;14.47;;;11.03;;
870;SDS011;422;51.280;7.236;2024-01-30T03:09:10;14.37;;;12.30;;
870;SDS011;422;51.280;7.236;2024-01-30T03:11:38;18.53;;;12.50;;
870;SDS011;422;51.280;7.236;2024-01-30T03:14:07;14.33;;;12.27;;
870;SDS011;422;51.280;7.236;2024-01-30T03:16:36;15.50;;;11.70;;
870;SDS011;422;51.280;7.236;2024-01-30T03:19:04;20.60;;;11.53;;
870;SDS011;422;51.280;7.236;2024-01-30T03:21:32;15.60;;;10.43;;
870;SDS011;422;51.280;7.236;2024-01-30T03:23:59;17.00;;;11.67;;
870;SDS011;422;51.280;7.236;2024-01-30T03:26:27;14.50;;;11.70;;
870;SDS011;422;51.280;7.236;2024-01-30T03:28:54;13.83;;;11.67;;
870;SDS011;422;51.280;7.236;2024-01-30T03:31:22;14.87;;;11.80;;
870;SDS011;422;51.280;7.236;2024-01-30T03:33:50;14.10;;;11.17;;
870;SDS011;422;51.280;7.236;2024-01-30T03:36:17;16.67;;;12.20;;
870;SDS011;422;51.280;7.236;2024-01-30T03:38:44;15.17;;;11.60;;
870;SDS011;422;51.280;7.236;2024-01-30T03:41:11;13.30;;;11.63;;
870;SDS011;422;51.280;7.236;2024-01-30T03:43:39;15.53;;;10.57;;
870;SDS011;422;51.280;7.236;2024-01-30T03:46:06;12.40;;;10.73;;
870;SDS011;422;51.280;7.236;2024-01-30T03:48:35;13.83;;;11.67;;
870;SDS011;422;51.280;7.236;2024-01-30T03:51:03;13.10;;;10.43;;
870;SDS011;422;51.280;7.236;2024-01-30T03:53:30;13.07;;;11.23;;
870;SDS011;422;51.280;7.236;2024-01-30T03:55:57;12.53;;;10.30;;
870;SDS011;422;51.280;7.236;2024-01-30T03:58:25;17.73;;;10.50;;
870;SDS011;422;51.280;7.236;2024-01-30T04:00:52;14.70;;;10.70;;
870;SDS011;422;51.280;7.236;2024-01-30T04:03:19;13.97;;;11.23;;
870;SDS011;422;51.280;7.236;2024-01-30T04:05:48;12.40;;;10.13;;
870;SDS011;422;51.280;7.236;2024-01-30T04:08:15;10.70;;;9.60;;
870;SDS011;422;51.280;7.236;2024-01-30T04:10:43;12.70;;;11.10;;
870;SDS011;422;51.280;7.236;2024-01-30T04:13:10;12.10;;;10.07;;
870;SDS011;422;51.280;7.236;2024-01-30T04:15:37;13.67;;;10.83;;
870;SDS011;422;51.280;7.236;2024-01-30T04:18:05;13.37;;;11.73;;
870;SDS011;422;51.280;7.236;2024-01-30T04:20:32;13.33;;;9.37;;
870;SDS011;422;51.280;7.236;2024-01-30T04:23:01;15.77;;;11.03;;
870;SDS011;422;51.280;7.236;2024-01-30T04:25:28;14.00;;;10.00;;
870;SDS011;422;51.280;7.236;2024-01-30T04:27:56;12.10;;;10.70;;
870;SDS011;422;51.280;7.236;2024-01-30T04:30:23;15.63;;;10.83;;
870;SDS011;422;51.280;7.236;2024-01-30T04:32:50;13.00;;;10.80;;
870;SDS011;422;51.280;7.236;2024-01-30T04:35:17;12.97;;;10.10;;
870;SDS011;422;51.280;7.236;2024-01-30T04:37:48;14.80;;;10.30;;
870;SDS011;422;51.280;7.236;2024-01-30T04:40:17;12.30;;;10.93;;
870;SDS011;422;51.280;7.236;2024-01-30T04:42:44;15.43;;;11.33;;
870;SDS011;422;51.280;7.236;2024-01-30T04:45:12;15.03;;;11.60;;
870;SDS011;422;51.280;7.236;2024-01-30T04:47:39;13.00;;;10.50;;
870;SDS011;422;51.280;7.236;2024-01-30T04:50:07;11.20;;;9.97;;
870;SDS011;422;51.280;7.236;2024-01-30T04:52:35;15.57;;;10.37;;
870;SDS011;422;51.280;7.236;2024-01-30T04:55:02;11.57;;;10.30;;
870;SDS011;422;51.280;7.236;2024-01-30T04:57:31;14.10;;;11.23;;
870;SDS011;422;51.280;7.236;2024-01-30T04:59:58;17.93;;;11.47;;
870;SDS011;422;51.280;7.236;2024-01-30T05:02:26;14.27;;;10.97;;
870;SDS011;422;51.280;7.236;2024-01-30T05:04:53;13.20;;;11.07;;
870;SDS011;422;51.280;7.236;2024-01-30T05:07:21;12.40;;;10.60;;
870;SDS011;422;51.280;7.236;2024-01-30T05:09:48;15.97;;;11.97;;
870;SDS011;422;51.280;7.236;2024-01-30T05:12:15;14.70;;;11.17;;
870;SDS011;422;51.280;7.236;2024-01-30T05:14:44;12.83;;;10.90;;
870;SDS011;422;51.280;7.236;2024-01-30T05:17:11;19.73;;;11.80;;
870;SDS011;422;51.280;7.236;2024-01-30T05:19:38;12.60;;;9.10;;
870;SDS011;422;51.280;7.236;2024-01-30T05:22:06;12.70;;;11.37;;
870;SDS011;422;51.280;7.236;2024-01-30T05:24:33;13.57;;;10.90;;
870;SDS011;422;51.280;7.236;2024-01-30T05:27:00;13.17;;;10.30;;
870;SDS011;422;51.280;7.236;2024-01-30T05:29:27;12.90;;;10.90;;
870;SDS011;422;51.280;7.236;2024-01-30T05:31:56;12.63;;;9.60;;
870;SDS011;422;51.280;7.236;2024-01-30T05:34:23;13.50;;;9.97;;
870;SDS011;422;51.280;7.236;2024-01-30T05:36:50;13.37;;;9.93;;
870;SDS011;422;51.280;7.236;2024-01-30T05:39:17;12.90;;;9.83;;
870;SDS011;422;51.280;7.236;2024-01-30T05:41:45;12.27;;;10.90;;
870;SDS011;422;51.280;7.236;2024-01-30T05:44:12;12.17;;;9.83;;
870;SDS011;422;51.280;7.236;2024-01-30T05:46:39;11.70;;;9.73;;
870;SDS011;422;51.280;7.236;2024-01-30T05:49:08;11.23;;;9.60;;
870;SDS011;422;51.280;7.236;2024-01-30T05:51:35;10.70;;;9.50;;
870;SDS011;422;51.280;7.236;2024-01-30T05:54:02;12.43;;;10.97;;
870;SDS011;422;51.280;7.236;2024-01-30T05:56:29;13.33;;;9.67;;
870;SDS011;422;51.280;7.236;2024-01-30T05:58:57;12.10;;;9.93;;
870;SDS011;422;51.280;7.236;2024-01-30T06:01:24;10.40;;;8.73;;
870;SDS011;422;51.280;7.236;2024-01-30T06:03:51;14.20;;;9.47;;
870;SDS011;422;51.280;7.236;2024-01-30T06:06:20;12.17;;;10.30;;
870;SDS011;422;51.280;7.236;2024-01-30T06:08:47;12.40;;;10.17;;
870;SDS011;422;51.280;7.236;2024-01-30T06:11:14;14.40;;;10.20;;
870;SDS011;422;51.280;7.236;2024-01-30T06:13:41;13.90;;;10.20;;
870;SDS011;422;51.280;7.236;2024-01-30T06:16:09;11.20;;;9.60;;
870;SDS011;422;51.280;7.236;2024-01-30T06:18:37;13.87;;;9.63;;
870;SDS011;422;51.280;7.236;2024-01-30T06:21:05;11.63;;;9.63;;
870;SDS011;422;51.280;7.236;2024-01-30T06:23:33;11.00;;;9.40;;
870;SDS011;422;51.280;7.236;2024-01-30T06:26:02;11.03;;;9.77;;
870;SDS011;422;51.280;7.236;2024-01-30T06:28:29;15.03;;;9.90;;
870;SDS011;422;51.280;7.236;2024-01-30T06:30:57;11.20;;;10.00;;
870;SDS011;422;51.280;7.236;2024-01-30T06:33:24;15.73;;;9.73;;
870;SDS011;422;51.280;7.236;2024-01-30T06:35:51;12.50;;;9.40;;
870;SDS011;422;51.280;7.236;2024-01-30T06:38:19;14.50;;;9.90;;
870;SDS011;422;51.280;7.236;2024-01-30T06:40:47;15.47;;;11.60;;
870;SDS011;422;51.280;7.236;2024-01-30T06:43:15;12.50;;;9.80;;
870;SDS011;422;51.280;7.236;2024-01-30T06:45:42;12.10;;;9.40;;
870;SDS011;422;51.280;7.236;2024-01-30T06:48:09;12.00;;;9.80;;
870;SDS011;422;51.280;7.236;2024-01-30T06:50:37;12.27;;;9.83;;
870;SDS011;422;51.280;7.236;2024-01-30T06:53:04;13.17;;;9.93;;
870;SDS011;422;51.280;7.236;2024-01-30T06:55:31;11.03;;;9.90;;
870;SDS011;422;51.280;7.236;2024-01-30T06:58:00;11.47;;;9.77;;
870;SDS011;422;51.280;7.236;2024-01-30T07:00:27;12.47;;;9.50;;
870;SDS011;422;51.280;7.236;2024-01-30T07:02:54;11.40;;;9.10;;
870;SDS011;422;51.280;7.236;2024-01-30T07:05:22;11.57;;;10.00;;
870;SDS011;422;51.280;7.236;2024-01-30T07:07:49;11.60;;;10.40;;
870;SDS011;422;51.280;7.236;2024-01-30T07:10:16;10.93;;;9.37;;
870;SDS011;422;51.280;7.236;2024-01-30T07:12:44;12.97;;;10.33;;
870;SDS011;422;51.280;7.236;2024-01-30T07:15:13;14.33;;;9.90;;
870;SDS011;422;51.280;7.236;2024-01-30T07:17:44;11.63;;;9.73;;
870;SDS011;422;51.280;7.236;2024-01-30T07:20:12;12.63;;;10.40;;
870;SDS011;422;51.280;7.236;2024-01-30T07:22:39;13.13;;;10.67;;
870;SDS011;422;51.280;7.236;2024-01-30T07:25:07;11.87;;;10.10;;
870;SDS011;422;51.280;7.236;2024-01-30T07:27:35;12.67;;;10.03;;
870;SDS011;422;51.280;7.236;2024-01-30T07:30:03;11.70;;;10.13;;
870;SDS011;422;51.280;7.236;2024-01-30T07:32:33;11.53;;;9.50;;
870;SDS011;422;51.280;7.236;2024-01-30T07:35:01;12.57;;;9.00;;
870;SDS011;422;51.280;7.236;2024-01-30T07:37:28;13.60;;;9.90;;
870;SDS011;422;51.280;7.236;2024-01-30T07:39:55;12.27;;;9.33;;
870;SDS011;422;51.280;7.236;2024-01-30T07:42:23;12.10;;;9.90;;
870;SDS011;422;51.280;7.236;2024-01-30T07:44:50;11.00;;;9.00;;
870;SDS011;422;51.280;7.236;2024-01-30T07:47:18;11.63;;;9.57;;
870;SDS011;422;51.280;7.236;2024-01-30T07:49:47;11.50;;;10.30;;
870;SDS011;422;51.280;7.236;2024-01-30T07:52:14;11.77;;;10.23;;
870;SDS011;422;51.280;7.236;2024-01-30T07:54:42;15.77;;;9.53;;
870;SDS011;422;51.280;7.236;2024-01-30T07:57:09;10.70;;;9.57;;
870;SDS011;422;51.280;7.236;2024-01-30T07:59:37;13.50;;;10.10;;
870;SDS011;422;51.280;7.236;2024-01-30T08:02:04;11.30;;;9.83;;
870;SDS011;422;51.280;7.236;2024-01-30T08:04:31;11.10;;;9.60;;
870;SDS011;422;51.280;7.236;2024-01-30T08:07:00;12.03;;;9.20;;
870;SDS011;422;51.280;7.236;2024-01-30T08:09:27;12.27;;;9.10;;
870;SDS011;422;51.280;7.236;2024-01-30T08:11:55;14.50;;;9.70;;
870;SDS011;422;51.280;7.236;2024-01-30T08:14:22;12.47;;;9.73;;
870;SDS011;422;51.280;7.236;2024-01-30T08:16:51;11.90;;;9.00;;
870;SDS011;422;51.280;7.236;2024-01-30T08:19:18;12.67;;;9.70;;
870;SDS011;422;51.280;7.236;2024-01-30T08:21:46;12.60;;;9.47;;
870;SDS011;422;51.280;7.236;2024-01-30T08:24:14;14.70;;;9.83;;
870;SDS011;422;51.280;7.236;2024-01-30T08:26:42;11.97;;;8.90;;
870;SDS011;422;51.280;7.236;2024-01-30T08:29:09;12.20;;;9.30;;
870;SDS011;422;51.280;7.236;2024-01-30T08:31:37;15.50;;;9.80;;
870;SDS011;422;51.280;7.236;2024-01-30T08:34:04;13.20;;;11.57;;
870;SDS011;422;51.280;7.236;2024-01-30T08:36:32;11.07;;;9.00;;
870;SDS011;422;51.280;7.236;2024-01-30T08:39:00;12.40;;;9.60;;
870;SDS011;422;51.280;7.236;2024-01-30T08:41:29;13.47;;;9.60;;
870;SDS011;422;51.280;7.236;2024-01-30T08:43:57;11.03;;;8.67;;
870;SDS011;422;51.280;7.236;2024-01-30T08:46:24;12.60;;;9.47;;
870;SDS011;422;51.280;7.236;2024-01-30T08:48:52;10.37;;;8.83;;
870;SDS011;422;51.280;7.236;2024-01-30T08:51:19;10.63;;;9.17;;
870;SDS011;422;51.280;7.236;2024-01-30T08:53:47;10.20;;;8.00;;
870;SDS011;422;51.280;7.236;2024-01-30T08:56:15;11.17;;;8.53;;
870;SDS011;422;51.280;7.236;2024-01-30T08:58:44;8.83;;;7.90;;
870;SDS011;422;51.280;7.236;2024-01-30T09:01:12;12.13;;;9.47;;
870;SDS011;422;51.280;7.236;2024-01-30T09:03:39;9.40;;;8.33;;
870;SDS011;422;51.280;7.236;2024-01-30T09:06:08;9.50;;;8.50;;
870;SDS011;422;51.280;7.236;2024-01-30T09:08:36;10.30;;;8.10;;
870;SDS011;422;51.280;7.236;2024-01-30T09:11:08;11.30;;;7.97;;
870;SDS011;422;51.280;7.236;2024-01-30T09:13:36;9.70;;;8.70;;
870;SDS011;422;51.280;7.236;2024-01-30T09:16:05;14.27;;;9.53;;
870;SDS011;422;51.280;7.236;2024-01-30T09:18:33;9.97;;;8.20;;
870;SDS011;422;51.280;7.236;2024-01-30T09:21:00;12.37;;;8.97;;
870;SDS011;422;51.280;7.236;2024-01-30T09:23:28;10.23;;;7.93;;
870;SDS011;422;51.280;7.236;2024-01-30T09:25:55;10.90;;;8.33;;
870;SDS011;422;51.280;7.236;2024-01-30T09:28:23;11.57;;;8.33;;
870;SDS011;422;51.280;7.236;2024-01-30T09:30:51;12.23;;;7.93;;
870;SDS011;422;51.280;7.236;2024-01-30T09:33:20;11.20;;;8.30;;
870;SDS011;422;51.280;7.236;2024-01-30T09:35:47;10.30;;;8.37;;
870;SDS011;422;51.280;7.236;2024-01-30T09:38:15;11.57;;;8.70;;
870;SDS011;422;51.280;7.236;2024-01-30T09:40:42;9.47;;;8.47;;
870;SDS011;422;51.280;7.236;2024-01-30T09:43:11;14.60;;;10.40;;
870;SDS011;422;51.280;7.236;2024-01-30T09:45:43;18.40;;;11.57;;
870;SDS011;422;51.280;7.236;2024-01-30T09:48:13;15.53;;;10.30;;
870;SDS011;422;51.280;7.236;2024-01-30T09:50:42;9.63;;;8.03;;
870;SDS011;422;51.280;7.236;2024-01-30T09:53:10;12.80;;;10.17;;
870;SDS011;422;51.280;7.236;2024-01-30T09:55:39;9.10;;;7.57;;
870;SDS011;422;51.280;7.236;2024-01-30T09:58:11;10.53;;;8.10;;
870;SDS011;422;51.280;7.236;2024-01-30T10:00:39;10.87;;;7.60;;
870;SDS011;422;51.280;7.236;2024-01-30T10:03:06;10.20;;;8.47;;
870;SDS011;422;51.280;7.236;2024-01-30T10:05:34;12.63;;;7.33;;
870;SDS011;422;51.280;7.236;2024-01-30T10:08:07;11.93;;;8.30;;
870;SDS011;422;51.280;7.236;2024-01-30T10:10:35;10.37;;;8.63;;
870;SDS011;422;51.280;7.236;2024-01-30T10:13:02;10.10;;;7.90;;
870;SDS011;422;51.280;7.236;2024-01-30T10:15:30;11.23;;;8.10;;
870;SDS011;422;51.280;7.236;2024-01-30T10:17:57;11.17;;;8.10;;
870;SDS011;422;51.280;7.236;2024-01-30T10:20:25;9.60;;;7.37;;
870;SDS011;422;51.280;7.236;2024-01-30T10:22:53;11.00;;;7.73;;
870;SDS011;422;51.280;7.236;2024-01-30T10:25:22;9.73;;;8.00;;
870;SDS011;422;51.280;7.236;2024-01-30T10:27:52;9.90;;;7.67;;
870;SDS011;422;51.280;7.236;2024-01-30T10:30:20;8.87;;;7.20;;
870;SDS011;422;51.280;7.236;2024-01-30T10:32:48;9.50;;;8.00;;
870;SDS011;422;51.280;7.236;2024-01-30T10:35:16;11.70;;;8.37;;
870;SDS011;422;51.280;7.236;2024-01-30T10:37:44;9.03;;;8.10;;
870;SDS011;422;51.280;7.236;2024-01-30T10:40:14;8.97;;;7.30;;
870;SDS011;422;51.280;7.236;2024-01-30T10:42:44;9.53;;;8.20;;
870;SDS011;422;51.280;7.236;2024-01-30T10:45:12;9.67;;;8.67;;
870;SDS011;422;51.280;7.236;2024-01-30T10:47:42;10.63;;;7.80;;
870;SDS011;422;51.280;7.236;2024-01-30T10:50:15;12.20;;;7.73;;
870;SDS011;422;51.280;7.236;2024-01-30T10:52:43;8.70;;;7.70;;
870;SDS011;422;51.280;7.236;2024-01-30T10:55:11;11.93;;;7.90;;
870;SDS011;422;51.280;7.236;2024-01-30T10:57:39;11.70;;;9.27;;
870;SDS011;422;51.280;7.236;2024-01-30T11:00:09;10.00;;;8.00;;
870;SDS011;422;51.280;7.236;2024-01-30T11:02:39;10.07;;;7.50;;
870;SDS011;422;51.280;7.236;2024-01-30T11:05:08;10.60;;;6.37;;
870;SDS011;422;51.280;7.236;2024-01-30T11:07:38;9.20;;;7.23;;
870;SDS011;422;51.280;7.236;2024-01-30T11:10:07;11.90;;;7.70;;
870;SDS011;422;51.280;7.236;2024-01-30T11:12:38;7.87;;;6.83;;
870;SDS011;422;51.280;7.236;2024-01-30T11:15:10;9.27;;;6.80;;
870;SDS011;422;51.280;7.236;2024-01-30T11:17:40;8.83;;;6.77;;
870;SDS011;422;51.280;7.236;2024-01-30T11:20:11;9.40;;;6.83;;
870;SDS011;422;51.280;7.236;2024-01-30T11:22:42;8.80;;;7.30;;
870;SDS011;422;51.280;7.236;2024-01-30T11:25:12;12.73;;;7.20;;
870;SDS011;422;51.280;7.236;2024-01-30T11:27:41;8.53;;;6.30;;
870;SDS011;422;51.280;7.236;2024-01-30T11:30:10;10.63;;;7.10;;
870;SDS011;422;51.280;7.236;2024-01-30T11:32:38;9.07;;;7.00;;
870;SDS011;422;51.280;7.236;2024-01-30T11:35:07;9.97;;;7.10;;
870;SDS011;422;51.280;7.236;2024-01-30T11:37:36;9.77;;;7.63;;
870;SDS011;422;51.280;7.236;2024-01-30T11:40:05;12.87;;;7.97;;
870;SDS011;422;51.280;7.236;2024-01-30T11:42:33;15.10;;;9.30;;
870;SDS011;422;51.280;7.236;2024-01-30T11:45:05;12.30;;;9.40;;
870;SDS011;422;51.280;7.236;2024-01-30T11:47:36;12.00;;;9.80;;
870;SDS011;422;51.280;7.236;2024-01-30T11:50:04;12.00;;;7.50;;
870;SDS011;422;51.280;7.236;2024-01-30T11:52:33;13.77;;;8.50;;
870;SDS011;422;51.280;7.236;2024-01-30T11:55:01;14.80;;;7.67;;
870;SDS011;422;51.280;7.236;2024-01-30T11:57:29;11.20;;;7.53;;
870;SDS011;422;51.280;7.236;2024-01-30T11:59:57;15.63;;;8.83;;
870;SDS011;422;51.280;7.236;2024-01-30T12:02:25;8.60;;;7.23;;
870;SDS011;422;51.280;7.236;2024-01-30T12:04:57;10.57;;;7.90;;
870;SDS011;422;51.280;7.236;2024-01-30T12:07:25;11.33;;;7.23;;
870;SDS011;422;51.280;7.236;2024-01-30T12:09:52;10.73;;;7.50;;
870;SDS011;422;51.280;7.236;2024-01-30T12:12:21;15.83;;;7.37;;
870;SDS011;422;51.280;7.236;2024-01-30T12:14:50;12.53;;;6.80;;
870;SDS011;422;51.280;7.236;2024-01-30T12:17:26;12.30;;;7.70;;
870;SDS011;422;51.280;7.236;2024-01-30T12:20:04;12.33;;;7.60;;
870;SDS011;422;51.280;7.236;2024-01-30T12:22:33;15.27;;;7.93;;
870;SDS011;422;51.280;7.236;2024-01-30T12:25:04;10.57;;;7.43;;
870;SDS011;422;51.280;7.236;2024-01-30T12:27:34;15.20;;;7.40;;
870;SDS011;422;51.280;7.236;2024-01-30T12:30:04;11.27;;;8.10;;
870;SDS011;422;51.280;7.236;2024-01-30T12:32:34;11.07;;;7.33;;
870;SDS011;422;51.280;7.236;2024-01-30T12:35:04;10.10;;;8.17;;
870;SDS011;422;51.280;7.236;2024-01-30T12:37:34;10.20;;;7.90;;
870;SDS011;422;51.280;7.236;2024-01-30T12:40:02;14.10;;;7.50;;
870;SDS011;422;51.280;7.236;2024-01-30T12:42:31;12.60;;;8.20;;
870;SDS011;422;51.280;7.236;2024-01-30T12:44:59;12.20;;;7.93;;
870;SDS011;422;51.280;7.236;2024-01-30T12:47:27;15.67;;;8.90;;
870;SDS011;422;51.280;7.236;2024-01-30T12:49:54;13.30;;;8.03;;
870;SDS011;422;51.280;7.236;2024-01-30T12:52:24;10.50;;;8.60;;
870;SDS011;422;51.280;7.236;2024-01-30T12:54:52;10.60;;;8.00;;
870;SDS011;422;51.280;7.236;2024-01-30T12:57:19;10.03;;;8.57;;
870;SDS011;422;51.280;7.236;2024-01-30T12:59:47;12.87;;;8.83;;
870;SDS011;422;51.280;7.236;2024-01-30T13:02:15;14.70;;;7.07;;
870;SDS011;422;51.280;7.236;2024-01-30T13:04:43;13.30;;;8.47;;
870;SDS011;422;51.280;7.236;2024-01-30T13:07:11;12.73;;;8.20;;
870;SDS011;422;51.280;7.236;2024-01-30T13:09:39;11.80;;;8.83;;
870;SDS011;422;51.280;7.236;2024-01-30T13:12:07;11.13;;;8.10;;
870;SDS011;422;51.280;7.236;2024-01-30T13:14:35;12.70;;;7.80;;
870;SDS011;422;51.280;7.236;2024-01-30T13:17:02;12.83;;;8.60;;
870;SDS011;422;51.280;7.236;2024-01-30T13:19:30;12.53;;;8.90;;
870;SDS011;422;51.280;7.236;2024-01-30T13:21:58;11.50;;;8.53;;
870;SDS011;422;51.280;7.236;2024-01-30T13:24:26;14.40;;;9.77;;
870;SDS011;422;51.280;7.236;2024-01-30T13:26:55;11.03;;;8.57;;
870;SDS011;422;51.280;7.236;2024-01-30T13:29:22;14.23;;;9.07;;
870;SDS011;422;51.280;7.236;2024-01-30T13:31:50;15.83;;;10.70;;
870;SDS011;422;51.280;7.236;2024-01-30T13:34:17;13.90;;;9.00;;
870;SDS011;422;51.280;7.236;2024-01-30T13:36:45;17.90;;;10.63;;
870;SDS011;422;51.280;7.236;2024-01-30T13:39:14;15.50;;;9.70;;
870;SDS011;422;51.280;7.236;2024-01-30T13:41:41;17.37;;;10.30;;
870;SDS011;422;51.280;7.236;2024-01-30T13:44:10;14.63;;;10.90;;
870;SDS011;422;51.280;7.236;2024-01-30T13:46:38;13.43;;;10.03;;
870;SDS011;422;51.280;7.236;2024-01-30T13:49:05;11.70;;;10.50;;
870;SDS011;422;51.280;7.236;2024-01-30T13:51:33;13.17;;;9.67;;
870;SDS011;422;51.280;7.236;2024-01-30T13:54:00;13.53;;;10.47;;
870;SDS011;422;51.280;7.236;2024-01-30T13:56:28;13.50;;;9.97;;
870;SDS011;422;51.280;7.236;2024-01-30T13:58:56;12.67;;;10.57;;
870;SDS011;422;51.280;7.236;2024-01-30T14:01:26;11.17;;;9.97;;
870;SDS011;422;51.280;7.236;2024-01-30T14:03:54;16.53;;;11.23;;
870;SDS011;422;51.280;7.236;2024-01-30T14:06:21;12.40;;;9.70;;
870;SDS011;422;51.280;7.236;2024-01-30T14:08:49;13.33;;;10.17;;
870;SDS011;422;51.280;7.236;2024-01-30T14:11:16;12.50;;;10.07;;
870;SDS011;422;51.280;7.236;2024-01-30T14:13:44;12.43;;;10.63;;
870;SDS011;422;51.280;7.236;2024-01-30T14:16:12;12.03;;;9.40;;
870;SDS011;422;51.280;7.236;2024-01-30T14:18:41;15.70;;;10.30;;
870;SDS011;422;51.280;7.236;2024-01-30T14:21:09;11.33;;;8.43;;
870;SDS011;422;51.280;7.236;2024-01-30T14:23:38;15.17;;;9.93;;
870;SDS011;422;51.280;7.236;2024-01-30T14:26:05;10.23;;;9.10;;
870;SDS011;422;51.280;7.236;2024-01-30T14:28:33;15.43;;;9.77;;
870;SDS011;422;51.280;7.236;2024-01-30T14:31:00;15.73;;;9.70;;
870;SDS011;422;51.280;7.236;2024-01-30T14:33:28;12.90;;;10.50;;
870;SDS011;422;51.280;7.236;2024-01-30T14:35:57;13.83;;;10.00;;
870;SDS011;422;51.280;7.236;2024-01-30T14:38:26;15.23;;;10.37;;
870;SDS011;422;51.280;7.236;2024-01-30T14:40:54;11.47;;;9.00;;
870;SDS011;422;51.280;7.236;2024-01-30T14:43:22;13.77;;;9.23;;
870;SDS011;422;51.280;7.236;2024-01-30T14:45:49;11.10;;;9.13;;
870;SDS011;422;51.280;7.236;2024-01-30T14:48:17;14.37;;;9.50;;
870;SDS011;422;51.280;7.236;2024-01-30T14:50:45;14.23;;;9.10;;
870;SDS011;422;51.280;7.236;2024-01-30T14:53:14;13.77;;;9.00;;
870;SDS011;422;51.280;7.236;2024-01-30T14:55:41;13.80;;;9.53;;
870;SDS011;422;51.280;7.236;2024-01-30T14:58:09;15.30;;;9.60;;
870;SDS011;422;51.280;7.236;2024-01-30T15:00:37;13.53;;;10.00;;
870;SDS011;422;51.280;7.236;2024-01-30T15:03:05;13.87;;;10.40;;
870;SDS011;422;51.280;7.236;2024-01-30T15:05:32;12.27;;;9.80;;
870;SDS011;422;51.280;7.236;2024-01-30T15:08:00;12.63;;;9.60;;
870;SDS011;422;51.280;7.236;2024-01-30T15:10:29;10.60;;;9.23;;
870;SDS011;422;51.280;7.236;2024-01-30T15:12:57;12.83;;;9.43;;
870;SDS011;422;51.280;7.236;2024-01-30T15:15:24;12.80;;;10.10;;
870;SDS011;422;51.280;7.236;2024-01-30T15:17:53;14.93;;;9.83;;
870;SDS011;422;51.280;7.236;2024-01-30T15:20:20;11.93;;;9.90;;
870;SDS011;422;51.280;7.236;2024-01-30T15:22:48;12.53;;;10.43;;
870;SDS011;422;51.280;7.236;2024-01-30T15:25:15;13.97;;;10.27;;
870;SDS011;422;51.280;7.236;2024-01-30T15:27:44;18.23;;;10.97;;
870;SDS011;422;51.280;7.236;2024-01-30T15:30:12;15.53;;;10.57;;
870;SDS011;422;51.280;7.236;2024-01-30T15:32:40;10.37;;;9.27;;